Kimball, Nebraska
Current Conditions -  °F | °C
As of 1:55 AM on Saturday 25 Oct 2014 (Local Time) from KIBM Reporting Station
Clear Clear  
Wind Chill: 40°   Ceiling: Unl
Heat Index: 44°   Visibility: 10mi
Dew Point: 29°   Wind: 7mph
Humidity: 57%   Direction: 290°WNW
Pressure: 30.17"   Gusts: NA
Location:  41.24°N, 103.66°W
Report Text: KIBM 250755Z AUTO 29006KT 10SM CLR 07/M01 A3017 RMK AO2 T00651015
Loading
Personal Weather Stations






























Interactive Weather Map
Tropical Storm Tracking
New forecast layout! Learn more

10-Day Weather Forecast

Advertisements
Track Severe Weather on mobile